sensor_id;sensor_type;location;lat;lon;timestamp;pressure;altitude;pressure_sealevel;temperature;humidity
17260;BME280;8746;49.230;9.220;2023-04-09T00:01:48;100698.69;;;6.53;84.06
17260;BME280;8746;49.230;9.220;2023-04-09T00:04:13;100698.63;;;6.56;84.00
17260;BME280;8746;49.230;9.220;2023-04-09T00:06:39;100703.94;;;6.53;84.25
17260;BME280;8746;49.230;9.220;2023-04-09T00:09:05;100698.59;;;6.61;84.35
17260;BME280;8746;49.230;9.220;2023-04-09T00:11:30;100701.22;;;6.61;84.69
17260;BME280;8746;49.230;9.220;2023-04-09T00:13:57;100695.94;;;6.63;84.04
17260;BME280;8746;49.230;9.220;2023-04-09T00:16:22;100697.72;;;6.59;84.14
17260;BME280;8746;49.230;9.220;2023-04-09T00:18:48;100695.97;;;6.61;84.46
17260;BME280;8746;49.230;9.220;2023-04-09T00:21:13;100691.66;;;6.55;84.50
17260;BME280;8746;49.230;9.220;2023-04-09T00:23:40;100689.97;;;6.48;85.01
17260;BME280;8746;49.230;9.220;2023-04-09T00:26:06;100689.16;;;6.43;85.20
17260;BME280;8746;49.230;9.220;2023-04-09T00:28:31;100691.84;;;6.40;85.39
17260;BME280;8746;49.230;9.220;2023-04-09T00:30:56;100686.66;;;6.34;85.81
17260;BME280;8746;49.230;9.220;2023-04-09T00:33:22;100685.88;;;6.25;86.52
17260;BME280;8746;49.230;9.220;2023-04-09T00:35:47;100686.88;;;6.12;86.61
17260;BME280;8746;49.230;9.220;2023-04-09T00:38:12;100690.41;;;6.08;86.94
17260;BME280;8746;49.230;9.220;2023-04-09T00:40:38;100677.38;;;6.00;87.55
17260;BME280;8746;49.230;9.220;2023-04-09T00:43:03;100681.78;;;5.95;87.49
17260;BME280;8746;49.230;9.220;2023-04-09T00:45:28;100676.47;;;6.03;87.52
17260;BME280;8746;49.230;9.220;2023-04-09T00:47:54;100673.06;;;5.94;88.00
17260;BME280;8746;49.230;9.220;2023-04-09T00:50:20;100673.06;;;5.94;88.23
17260;BME280;8746;49.230;9.220;2023-04-09T00:52:45;100670.47;;;5.88;88.03
17260;BME280;8746;49.230;9.220;2023-04-09T00:55:11;100677.53;;;5.80;87.88
17260;BME280;8746;49.230;9.220;2023-04-09T00:57:37;100679.31;;;5.78;88.08
17260;BME280;8746;49.230;9.220;2023-04-09T01:00:03;100678.38;;;5.82;88.29
17260;BME280;8746;49.230;9.220;2023-04-09T01:02:28;100665.34;;;5.79;88.37
17260;BME280;8746;49.230;9.220;2023-04-09T01:04:55;100677.53;;;5.80;88.41
17260;BME280;8746;49.230;9.220;2023-04-09T01:08:07;100675.81;;;5.76;89.09
17260;BME280;8746;49.230;9.220;2023-04-09T01:13:11;100675.03;;;5.69;89.28
17260;BME280;8746;49.230;9.220;2023-04-09T01:15:43;100669.84;;;5.61;89.77
17260;BME280;8746;49.230;9.220;2023-04-09T01:18:16;100678.50;;;5.71;89.67
17260;BME280;8746;49.230;9.220;2023-04-09T01:21:04;100670.69;;;5.64;89.55
17260;BME280;8746;49.230;9.220;2023-04-09T01:23:39;100674.94;;;5.77;88.78
17260;BME280;8746;49.230;9.220;2023-04-09T01:26:37;100668.97;;;5.61;89.79
17260;BME280;8746;49.230;9.220;2023-04-09T01:29:06;100678.56;;;5.62;90.36
17260;BME280;8746;49.230;9.220;2023-04-09T01:31:35;100671.56;;;5.64;90.42
17260;BME280;8746;49.230;9.220;2023-04-09T01:34:02;100676.00;;;5.53;90.34
17260;BME280;8746;49.230;9.220;2023-04-09T01:36:29;100677.00;;;5.41;90.90
17260;BME280;8746;49.230;9.220;2023-04-09T01:38:56;100679.59;;;5.39;91.41
17260;BME280;8746;49.230;9.220;2023-04-09T01:41:24;100683.97;;;5.39;91.27
17260;BME280;8746;49.230;9.220;2023-04-09T01:43:51;100683.09;;;5.37;91.67
17260;BME280;8746;49.230;9.220;2023-04-09T01:46:18;100679.63;;;5.33;92.11
17260;BME280;8746;49.230;9.220;2023-04-09T01:48:44;100687.53;;;5.28;92.00
17260;BME280;8746;49.230;9.220;2023-04-09T01:51:12;100684.13;;;5.16;93.09
17260;BME280;8746;49.230;9.220;2023-04-09T01:53:38;100677.03;;;5.32;92.66
17260;BME280;8746;49.230;9.220;2023-04-09T01:56:05;100671.78;;;5.36;92.34
17260;BME280;8746;49.230;9.220;2023-04-09T01:58:30;100676.22;;;5.22;92.40
17260;BME280;8746;49.230;9.220;2023-04-09T02:01:19;100678.78;;;5.33;92.92
17260;BME280;8746;49.230;9.220;2023-04-09T02:03:57;100670.00;;;5.40;93.03
17260;BME280;8746;49.230;9.220;2023-04-09T02:06:35;100675.19;;;5.46;92.85
17260;BME280;8746;49.230;9.220;2023-04-09T02:09:06;100674.31;;;5.49;92.31
17260;BME280;8746;49.230;9.220;2023-04-09T02:11:33;100678.72;;;5.40;91.16
17260;BME280;8746;49.230;9.220;2023-04-09T02:14:02;100676.94;;;5.47;91.58
17260;BME280;8746;49.230;9.220;2023-04-09T02:16:28;100676.09;;;5.42;91.09
17260;BME280;8746;49.230;9.220;2023-04-09T02:18:55;100676.13;;;5.36;91.69
17260;BME280;8746;49.230;9.220;2023-04-09T02:21:22;100677.00;;;5.38;92.25
17260;BME280;8746;49.230;9.220;2023-04-09T02:23:47;100674.38;;;5.38;92.02
17260;BME280;8746;49.230;9.220;2023-04-09T02:26:13;100670.88;;;5.40;92.13
17260;BME280;8746;49.230;9.220;2023-04-09T02:28:38;100676.09;;;5.43;92.00
17260;BME280;8746;49.230;9.220;2023-04-09T02:31:04;100676.88;;;5.58;91.21
17260;BME280;8746;49.230;9.220;2023-04-09T02:33:29;100676.03;;;5.54;91.36
17260;BME280;8746;49.230;9.220;2023-04-09T02:35:54;100677.78;;;5.49;91.36
17260;BME280;8746;49.230;9.220;2023-04-09T02:38:20;100674.25;;;5.52;91.10
17260;BME280;8746;49.230;9.220;2023-04-09T02:40:45;100673.47;;;5.42;90.83
17260;BME280;8746;49.230;9.220;2023-04-09T02:43:11;100675.22;;;5.43;91.54
17260;BME280;8746;49.230;9.220;2023-04-09T02:45:36;100677.00;;;5.38;92.50
17260;BME280;8746;49.230;9.220;2023-04-09T02:48:01;100682.25;;;5.36;92.06
17260;BME280;8746;49.230;9.220;2023-04-09T02:50:27;100678.78;;;5.33;92.42
17260;BME280;8746;49.230;9.220;2023-04-09T02:52:52;100679.63;;;5.33;93.26
17260;BME280;8746;49.230;9.220;2023-04-09T02:55:18;100684.81;;;5.39;92.77
17260;BME280;8746;49.230;9.220;2023-04-09T02:57:43;100680.69;;;5.06;93.14
17260;BME280;8746;49.230;9.220;2023-04-09T03:00:10;100680.69;;;5.06;93.56
17260;BME280;8746;49.230;9.220;2023-04-09T03:02:35;100679.91;;;4.90;94.70
17260;BME280;8746;49.230;9.220;2023-04-09T03:05:01;100681.63;;;4.95;94.30
17260;BME280;8746;49.230;9.220;2023-04-09T03:07:26;100672.97;;;4.82;94.73
17260;BME280;8746;49.230;9.220;2023-04-09T03:09:52;100676.47;;;4.75;95.26
17260;BME280;8746;49.230;9.220;2023-04-09T03:12:17;100668.66;;;4.71;95.76
17260;BME280;8746;49.230;9.220;2023-04-09T03:14:42;100667.72;;;4.79;96.07
17260;BME280;8746;49.230;9.220;2023-04-09T03:17:07;100674.72;;;4.82;96.01
17260;BME280;8746;49.230;9.220;2023-04-09T03:19:33;100670.25;;;4.96;95.70
17260;BME280;8746;49.230;9.220;2023-04-09T03:21:58;100671.09;;;5.08;95.43
17260;BME280;8746;49.230;9.220;2023-04-09T03:24:23;100671.94;;;5.10;95.26
17260;BME280;8746;49.230;9.220;2023-04-09T03:26:49;100667.63;;;5.06;95.32
17260;BME280;8746;49.230;9.220;2023-04-09T03:29:14;100666.72;;;5.08;95.50
17260;BME280;8746;49.230;9.220;2023-04-09T03:31:40;100664.09;;;5.08;95.03
17260;BME280;8746;49.230;9.220;2023-04-09T03:34:05;100664.13;;;5.07;95.11
17260;BME280;8746;49.230;9.220;2023-04-09T03:36:30;100659.75;;;5.06;95.44
17260;BME280;8746;49.230;9.220;2023-04-09T03:38:56;100663.31;;;4.95;95.57
17260;BME280;8746;49.230;9.220;2023-04-09T03:41:22;100672.91;;;4.90;95.82
17260;BME280;8746;49.230;9.220;2023-04-09T03:43:47;100672.91;;;4.90;96.04
17260;BME280;8746;49.230;9.220;2023-04-09T03:46:13;100663.38;;;4.86;96.41
17260;BME280;8746;49.230;9.220;2023-04-09T03:48:39;100666.00;;;4.85;96.91
17260;BME280;8746;49.230;9.220;2023-04-09T03:51:05;100672.06;;;4.85;96.90
17260;BME280;8746;49.230;9.220;2023-04-09T03:53:30;100666.81;;;4.94;96.50
17260;BME280;8746;49.230;9.220;2023-04-09T03:55:56;100667.72;;;4.82;96.77
17260;BME280;8746;49.230;9.220;2023-04-09T03:58:21;100667.63;;;5.04;96.45
17260;BME280;8746;49.230;9.220;2023-04-09T04:00:46;100669.44;;;4.90;96.26
17260;BME280;8746;49.230;9.220;2023-04-09T04:03:12;100662.47;;;4.93;96.23
17260;BME280;8746;49.230;9.220;2023-04-09T04:05:40;100665.91;;;4.98;96.66
17260;BME280;8746;49.230;9.220;2023-04-09T04:08:05;100673.75;;;5.02;96.94
17260;BME280;8746;49.230;9.220;2023-04-09T04:10:32;100661.50;;;5.07;96.95
17260;BME280;8746;49.230;9.220;2023-04-09T04:12:58;100663.25;;;5.08;96.69
17260;BME280;8746;49.230;9.220;2023-04-09T04:15:23;100670.19;;;5.09;96.49
17260;BME280;8746;49.230;9.220;2023-04-09T04:17:48;100666.69;;;5.10;96.66
17260;BME280;8746;49.230;9.220;2023-04-09T04:20:14;100669.31;;;5.14;96.26
17260;BME280;8746;49.230;9.220;2023-04-09T04:22:39;100667.50;;;5.20;96.41
17260;BME280;8746;49.230;9.220;2023-04-09T04:25:05;100671.88;;;5.19;96.54
17260;BME280;8746;49.230;9.220;2023-04-09T04:27:30;100677.09;;;5.22;96.31
17260;BME280;8746;49.230;9.220;2023-04-09T04:29:56;100675.34;;;5.23;96.47
17260;BME280;8746;49.230;9.220;2023-04-09T04:32:23;100677.97;;;5.23;96.10
17260;BME280;8746;49.230;9.220;2023-04-09T04:34:48;100676.22;;;5.23;95.70
17260;BME280;8746;49.230;9.220;2023-04-09T04:37:14;100686.66;;;5.26;95.79
17260;BME280;8746;49.230;9.220;2023-04-09T04:39:39;100678.84;;;5.23;96.28
17260;BME280;8746;49.230;9.220;2023-04-09T04:42:05;100685.81;;;5.24;96.33
17260;BME280;8746;49.230;9.220;2023-04-09T04:44:30;100684.06;;;5.23;96.05
17260;BME280;8746;49.230;9.220;2023-04-09T04:46:55;100685.91;;;5.06;96.27
17260;BME280;8746;49.230;9.220;2023-04-09T04:49:21;100688.53;;;5.03;96.84
17260;BME280;8746;49.230;9.220;2023-04-09T04:51:46;100691.16;;;5.03;97.21
17260;BME280;8746;49.230;9.220;2023-04-09T04:54:11;100682.44;;;5.04;97.20
17260;BME280;8746;49.230;9.220;2023-04-09T04:56:36;100687.69;;;4.97;97.41
17260;BME280;8746;49.230;9.220;2023-04-09T04:59:02;100689.44;;;4.98;97.83
17260;BME280;8746;49.230;9.220;2023-04-09T05:01:27;100688.50;;;5.10;97.55
17260;BME280;8746;49.230;9.220;2023-04-09T05:03:52;100689.38;;;5.14;97.38
17260;BME280;8746;49.230;9.220;2023-04-09T05:06:18;100685.84;;;5.21;97.53
17260;BME280;8746;49.230;9.220;2023-04-09T05:08:43;100696.25;;;5.26;97.53
17260;BME280;8746;49.230;9.220;2023-04-09T05:11:11;100691.00;;;5.34;97.29
17260;BME280;8746;49.230;9.220;2023-04-09T05:13:37;100694.44;;;5.36;97.60
17260;BME280;8746;49.230;9.220;2023-04-09T05:16:02;100686.59;;;5.39;97.17
17260;BME280;8746;49.230;9.220;2023-04-09T05:18:28;100682.22;;;5.41;96.86
17260;BME280;8746;49.230;9.220;2023-04-09T05:20:53;100681.31;;;5.42;96.54
17260;BME280;8746;49.230;9.220;2023-04-09T05:23:18;100683.06;;;5.46;96.56
17260;BME280;8746;49.230;9.220;2023-04-09T05:25:44;100689.09;;;5.53;96.59
17260;BME280;8746;49.230;9.220;2023-04-09T05:28:09;100694.34;;;5.54;95.86
17260;BME280;8746;49.230;9.220;2023-04-09T05:30:35;100696.84;;;5.65;95.83
17260;BME280;8746;49.230;9.220;2023-04-09T05:33:00;100688.13;;;5.66;95.54
17260;BME280;8746;49.230;9.220;2023-04-09T05:35:26;100689.84;;;5.70;95.73
17260;BME280;8746;49.230;9.220;2023-04-09T05:37:51;100690.75;;;5.68;94.99
17260;BME280;8746;49.230;9.220;2023-04-09T05:40:16;100684.59;;;5.72;95.63
17260;BME280;8746;49.230;9.220;2023-04-09T05:42:42;100685.41;;;5.77;95.31
17260;BME280;8746;49.230;9.220;2023-04-09T05:45:08;100687.16;;;5.75;95.47
17260;BME280;8746;49.230;9.220;2023-04-09T05:47:33;100683.56;;;5.91;94.83
17260;BME280;8746;49.230;9.220;2023-04-09T05:49:59;100690.66;;;5.80;94.93
17260;BME280;8746;49.230;9.220;2023-04-09T05:52:24;100682.72;;;5.88;95.00
17260;BME280;8746;49.230;9.220;2023-04-09T05:54:49;100694.88;;;5.92;94.90
17260;BME280;8746;49.230;9.220;2023-04-09T05:57:15;100695.00;;;5.78;95.55
17260;BME280;8746;49.230;9.220;2023-04-09T05:59:40;100702.91;;;5.73;96.11
17260;BME280;8746;49.230;9.220;2023-04-09T06:02:05;100689.78;;;5.75;96.13
17260;BME280;8746;49.230;9.220;2023-04-09T06:04:31;100693.31;;;5.71;96.02
17260;BME280;8746;49.230;9.220;2023-04-09T06:06:56;100700.34;;;5.67;96.60
17260;BME280;8746;49.230;9.220;2023-04-09T06:09:24;100700.34;;;5.67;96.57
17260;BME280;8746;49.230;9.220;2023-04-09T06:11:50;100699.31;;;5.85;96.50
17260;BME280;8746;49.230;9.220;2023-04-09T06:14:15;100695.75;;;5.99;95.91
17260;BME280;8746;49.230;9.220;2023-04-09T06:16:42;100699.78;;;6.31;95.15
17260;BME280;8746;49.230;9.220;2023-04-09T06:19:07;100697.09;;;6.37;94.34
17260;BME280;8746;49.230;9.220;2023-04-09T06:21:32;100704.16;;;6.29;93.20
17260;BME280;8746;49.230;9.220;2023-04-09T06:23:58;100700.69;;;6.28;94.03
17260;BME280;8746;49.230;9.220;2023-04-09T06:26:23;100702.13;;;6.58;93.27
17260;BME280;8746;49.230;9.220;2023-04-09T06:28:49;100698.38;;;6.78;92.67
17260;BME280;8746;49.230;9.220;2023-04-09T06:31:14;100705.78;;;6.42;92.50
17260;BME280;8746;49.230;9.220;2023-04-09T06:33:39;100694.19;;;6.63;93.33
17260;BME280;8746;49.230;9.220;2023-04-09T06:36:05;100694.19;;;6.63;92.08
17260;BME280;8746;49.230;9.220;2023-04-09T06:38:31;100689.66;;;6.76;92.28
17260;BME280;8746;49.230;9.220;2023-04-09T06:40:56;100699.97;;;6.92;92.39
17260;BME280;8746;49.230;9.220;2023-04-09T06:43:22;100697.13;;;7.09;90.75
17260;BME280;8746;49.230;9.220;2023-04-09T06:45:48;100702.31;;;7.13;90.54
17260;BME280;8746;49.230;9.220;2023-04-09T06:48:13;100701.19;;;7.30;90.05
17260;BME280;8746;49.230;9.220;2023-04-09T06:50:39;100707.13;;;7.43;90.29
17260;BME280;8746;49.230;9.220;2023-04-09T06:53:05;100698.31;;;7.47;89.23
17260;BME280;8746;49.230;9.220;2023-04-09T06:55:31;100704.22;;;7.61;88.45
17260;BME280;8746;49.230;9.220;2023-04-09T06:57:56;100700.28;;;7.32;89.69
17260;BME280;8746;49.230;9.220;2023-04-09T07:00:21;100695.78;;;7.41;88.91
17260;BME280;8746;49.230;9.220;2023-04-09T07:02:47;100704.59;;;7.35;89.57
17260;BME280;8746;49.230;9.220;2023-04-09T07:05:13;100710.16;;;7.73;89.30
17260;BME280;8746;49.230;9.220;2023-04-09T07:07:39;100716.28;;;7.73;87.72
17260;BME280;8746;49.230;9.220;2023-04-09T07:10:05;100720.41;;;7.90;85.90
17260;BME280;8746;49.230;9.220;2023-04-09T07:12:32;100717.69;;;7.94;86.20
17260;BME280;8746;49.230;9.220;2023-04-09T07:15:00;100718.41;;;8.04;86.36
17260;BME280;8746;49.230;9.220;2023-04-09T07:17:26;100714.47;;;8.27;85.37
17260;BME280;8746;49.230;9.220;2023-04-09T07:19:51;100713.56;;;8.31;85.06
17260;BME280;8746;49.230;9.220;2023-04-09T07:22:19;100718.03;;;8.26;85.38
17260;BME280;8746;49.230;9.220;2023-04-09T07:24:45;100719.84;;;8.21;84.82
17260;BME280;8746;49.230;9.220;2023-04-09T07:27:11;100720.56;;;8.32;84.36
17260;BME280;8746;49.230;9.220;2023-04-09T07:29:36;100725.03;;;8.25;83.81
17260;BME280;8746;49.230;9.220;2023-04-09T07:32:01;100722.13;;;8.39;82.93
17260;BME280;8746;49.230;9.220;2023-04-09T07:34:27;100721.91;;;8.55;83.26
17260;BME280;8746;49.230;9.220;2023-04-09T07:36:53;100724.38;;;8.62;82.02
17260;BME280;8746;49.230;9.220;2023-04-09T07:39:19;100727.59;;;8.77;81.26
17260;BME280;8746;49.230;9.220;2023-04-09T07:41:45;100725.84;;;8.76;78.96
17260;BME280;8746;49.230;9.220;2023-04-09T07:44:11;100725.56;;;8.91;79.79
17260;BME280;8746;49.230;9.220;2023-04-09T07:46:37;100724.34;;;9.06;79.52
17260;BME280;8746;49.230;9.220;2023-04-09T07:49:03;100724.75;;;8.88;78.67
17260;BME280;8746;49.230;9.220;2023-04-09T07:51:30;100719.22;;;9.00;79.51
17260;BME280;8746;49.230;9.220;2023-04-09T07:53:55;100709.53;;;9.02;78.78
17260;BME280;8746;49.230;9.220;2023-04-09T07:56:20;100716.09;;;9.25;79.05
17260;BME280;8746;49.230;9.220;2023-04-09T07:58:46;100712.66;;;9.21;77.21
17260;BME280;8746;49.230;9.220;2023-04-09T08:01:13;100715.00;;;9.32;77.91
17260;BME280;8746;49.230;9.220;2023-04-09T08:03:38;100710.53;;;9.37;78.94
17260;BME280;8746;49.230;9.220;2023-04-09T08:06:04;100705.72;;;9.55;75.84
17260;BME280;8746;49.230;9.220;2023-04-09T08:08:29;100716.06;;;9.64;72.26
17260;BME280;8746;49.230;9.220;2023-04-09T08:10:55;100714.13;;;9.71;73.31
17260;BME280;8746;49.230;9.220;2023-04-09T08:13:22;100712.31;;;9.73;73.55
17260;BME280;8746;49.230;9.220;2023-04-09T08:15:48;100715.97;;;9.67;71.56
17260;BME280;8746;49.230;9.220;2023-04-09T08:18:13;100712.06;;;9.84;72.49
17260;BME280;8746;49.230;9.220;2023-04-09T08:20:38;100709.22;;;9.91;71.16
17260;BME280;8746;49.230;9.220;2023-04-09T08:23:09;100718.97;;;10.24;70.18
17260;BME280;8746;49.230;9.220;2023-04-09T08:25:35;100720.13;;;10.12;67.74
17260;BME280;8746;49.230;9.220;2023-04-09T08:28:00;100725.16;;;9.87;67.63
17260;BME280;8746;49.230;9.220;2023-04-09T08:30:25;100727.09;;;10.15;69.31
17260;BME280;8746;49.230;9.220;2023-04-09T08:32:50;100727.47;;;9.99;67.68
17260;BME280;8746;49.230;9.220;2023-04-09T08:35:16;100727.09;;;10.15;67.22
17260;BME280;8746;49.230;9.220;2023-04-09T08:37:42;100731.31;;;10.22;67.56
17260;BME280;8746;49.230;9.220;2023-04-09T08:40:07;100743.66;;;10.20;65.88
17260;BME280;8746;49.230;9.220;2023-04-09T08:42:33;100725.47;;;10.10;66.68
17260;BME280;8746;49.230;9.220;2023-04-09T08:45:03;100724.06;;;10.30;65.55
17260;BME280;8746;49.230;9.220;2023-04-09T08:47:29;100727.91;;;10.51;63.47
17260;BME280;8746;49.230;9.220;2023-04-09T08:49:55;100724.34;;;10.54;64.02
17260;BME280;8746;49.230;9.220;2023-04-09T08:52:30;100718.31;;;10.49;63.96
17260;BME280;8746;49.230;9.220;2023-04-09T08:54:56;100723.47;;;10.85;62.06
17260;BME280;8746;49.230;9.220;2023-04-09T08:57:21;100716.53;;;10.81;62.72
17260;BME280;8746;49.230;9.220;2023-04-09T08:59:46;100719.66;;;10.95;62.04
17260;BME280;8746;49.230;9.220;2023-04-09T09:02:12;100723.38;;;10.88;62.58
17260;BME280;8746;49.230;9.220;2023-04-09T09:04:48;100715.53;;;10.85;61.18
17260;BME280;8746;49.230;9.220;2023-04-09T09:07:15;100714.72;;;10.83;64.21
17260;BME280;8746;49.230;9.220;2023-04-09T09:09:53;100721.22;;;10.71;62.48
17260;BME280;8746;49.230;9.220;2023-04-09T09:12:36;100729.38;;;10.63;62.44
17260;BME280;8746;49.230;9.220;2023-04-09T09:15:45;100723.47;;;10.85;60.06
17260;BME280;8746;49.230;9.220;2023-04-09T09:17:54;100729.31;;;10.96;58.76
17260;BME280;8746;49.230;9.220;2023-04-09T09:20:20;100722.16;;;11.00;57.32
17260;BME280;8746;49.230;9.220;2023-04-09T09:22:50;100716.81;;;11.31;59.28
17260;BME280;8746;49.230;9.220;2023-04-09T09:25:15;100728.84;;;11.12;58.11
17260;BME280;8746;49.230;9.220;2023-04-09T09:27:41;100713.94;;;11.09;57.71
17260;BME280;8746;49.230;9.220;2023-04-09T09:30:07;100728.19;;;11.03;58.39
17260;BME280;8746;49.230;9.220;2023-04-09T09:32:34;100727.16;;;11.09;56.88
17260;BME280;8746;49.230;9.220;2023-04-09T09:35:04;100718.06;;;11.48;57.55
17260;BME280;8746;49.230;9.220;2023-04-09T09:37:30;100713.94;;;11.94;56.12
17260;BME280;8746;49.230;9.220;2023-04-09T09:39:59;100718.69;;;11.83;56.79
17260;BME280;8746;49.230;9.220;2023-04-09T09:42:25;100708.97;;;11.57;55.28
17260;BME280;8746;49.230;9.220;2023-04-09T09:44:52;100710.00;;;12.06;55.61
17260;BME280;8746;49.230;9.220;2023-04-09T09:47:20;100709.16;;;12.56;53.67
17260;BME280;8746;49.230;9.220;2023-04-09T09:49:49;100711.69;;;12.59;53.83
17260;BME280;8746;49.230;9.220;2023-04-09T09:52:19;100731.72;;;12.16;53.56
17260;BME280;8746;49.230;9.220;2023-04-09T09:54:47;100713.41;;;11.83;53.73
17260;BME280;8746;49.230;9.220;2023-04-09T09:57:16;100717.34;;;11.69;54.15
17260;BME280;8746;49.230;9.220;2023-04-09T09:59:53;100708.16;;;11.81;53.89
17260;BME280;8746;49.230;9.220;2023-04-09T10:02:22;100714.00;;;11.91;52.87
17260;BME280;8746;49.230;9.220;2023-04-09T10:04:49;100706.06;;;11.64;53.63
17260;BME280;8746;49.230;9.220;2023-04-09T10:07:18;100702.84;;;12.10;54.78
17260;BME280;8746;49.230;9.220;2023-04-09T10:09:48;100709.50;;;12.22;50.33
17260;BME280;8746;49.230;9.220;2023-04-09T10:12:14;100709.69;;;12.66;50.88
17260;BME280;8746;49.230;9.220;2023-04-09T10:14:41;100702.47;;;12.46;48.65
17260;BME280;8746;49.230;9.220;2023-04-09T10:17:06;100703.06;;;12.29;47.52
17260;BME280;8746;49.230;9.220;2023-04-09T10:19:37;100699.91;;;12.43;48.23
17260;BME280;8746;49.230;9.220;2023-04-09T10:22:07;100692.38;;;12.07;48.25
17260;BME280;8746;49.230;9.220;2023-04-09T10:24:34;100698.31;;;12.64;46.26
17260;BME280;8746;49.230;9.220;2023-04-09T10:27:10;100695.00;;;13.05;44.18
17260;BME280;8746;49.230;9.220;2023-04-09T10:29:42;100696.50;;;12.41;42.63
17260;BME280;8746;49.230;9.220;2023-04-09T10:32:09;100692.75;;;12.94;44.82
17260;BME280;8746;49.230;9.220;2023-04-09T10:34:40;100686.56;;;12.71;44.25
17260;BME280;8746;49.230;9.220;2023-04-09T10:37:08;100687.34;;;12.49;46.70
17260;BME280;8746;49.230;9.220;2023-04-09T10:39:38;100687.78;;;12.37;45.40
17260;BME280;8746;49.230;9.220;2023-04-09T10:42:07;100693.31;;;12.31;44.98
17260;BME280;8746;49.230;9.220;2023-04-09T10:44:38;100684.31;;;12.60;45.84
17260;BME280;8746;49.230;9.220;2023-04-09T10:47:07;100682.56;;;12.83;45.45
17260;BME280;8746;49.230;9.220;2023-04-09T10:49:37;100684.84;;;13.16;44.04
17260;BME280;8746;49.230;9.220;2023-04-09T10:52:05;100683.56;;;13.04;43.98
17260;BME280;8746;49.230;9.220;2023-04-09T10:57:22;100674.16;;;12.95;45.13
17260;BME280;8746;49.230;9.220;2023-04-09T10:59:50;100663.16;;;13.52;42.91
17260;BME280;8746;49.230;9.220;2023-04-09T11:02:30;100667.59;;;13.72;43.76
17260;BME280;8746;49.230;9.220;2023-04-09T11:07:51;100676.06;;;12.68;46.29
17260;BME280;8746;49.230;9.220;2023-04-09T11:10:18;100672.88;;;12.83;47.10
17260;BME280;8746;49.230;9.220;2023-04-09T11:12:47;100658.84;;;13.50;43.68
17260;BME280;8746;49.230;9.220;2023-04-09T11:15:16;100660.94;;;13.41;42.97
17260;BME280;8746;49.230;9.220;2023-04-09T11:17:43;100652.06;;;13.85;43.20
17260;BME280;8746;49.230;9.220;2023-04-09T11:20:09;100653.97;;;14.23;43.44
17260;BME280;8746;49.230;9.220;2023-04-09T11:22:35;100646.50;;;14.12;43.75
17260;BME280;8746;49.230;9.220;2023-04-09T11:25:00;100651.97;;;13.87;44.40
17260;BME280;8746;49.230;9.220;2023-04-09T11:27:25;100645.88;;;13.42;43.75
17260;BME280;8746;49.230;9.220;2023-04-09T11:29:54;100639.84;;;13.81;43.66
17260;BME280;8746;49.230;9.220;2023-04-09T11:32:20;100644.88;;;13.44;45.14
17260;BME280;8746;49.230;9.220;2023-04-09T11:34:45;100646.34;;;13.52;43.26
17260;BME280;8746;49.230;9.220;2023-04-09T11:37:15;100637.31;;;14.40;43.06
17260;BME280;8746;49.230;9.220;2023-04-09T11:39:43;100634.25;;;14.87;42.45
17260;BME280;8746;49.230;9.220;2023-04-09T11:42:18;100636.66;;;14.14;42.27
17260;BME280;8746;49.230;9.220;2023-04-09T11:44:43;100634.41;;;14.25;43.63
17260;BME280;8746;49.230;9.220;2023-04-09T11:47:09;100642.19;;;13.46;43.19
17260;BME280;8746;49.230;9.220;2023-04-09T11:49:35;100637.63;;;13.27;43.72
17260;BME280;8746;49.230;9.220;2023-04-09T11:52:01;100637.91;;;14.05;43.55
17260;BME280;8746;49.230;9.220;2023-04-09T11:54:31;100636.63;;;14.94;42.76
17260;BME280;8746;49.230;9.220;2023-04-09T11:57:02;100630.91;;;15.20;41.02
17260;BME280;8746;49.230;9.220;2023-04-09T11:59:28;100628.31;;;15.73;39.45
17260;BME280;8746;49.230;9.220;2023-04-09T12:01:56;100628.56;;;15.14;40.96
17260;BME280;8746;49.230;9.220;2023-04-09T12:04:21;100624.38;;;14.72;40.29
17260;BME280;8746;49.230;9.220;2023-04-09T12:06:47;100625.03;;;15.50;41.65
17260;BME280;8746;49.230;9.220;2023-04-09T12:09:13;100622.38;;;15.50;40.11
17260;BME280;8746;49.230;9.220;2023-04-09T12:11:41;100629.03;;;15.42;40.56
17260;BME280;8746;49.230;9.220;2023-04-09T12:14:14;100629.91;;;15.77;40.97
17260;BME280;8746;49.230;9.220;2023-04-09T12:16:43;100627.41;;;14.63;39.61
17260;BME280;8746;49.230;9.220;2023-04-09T12:19:10;100624.69;;;14.64;42.35
17260;BME280;8746;49.230;9.220;2023-04-09T12:24:12;100620.13;;;14.47;40.90
17260;BME280;8746;49.230;9.220;2023-04-09T12:26:37;100624.13;;;14.57;38.75
17260;BME280;8746;49.230;9.220;2023-04-09T12:29:02;100622.16;;;14.42;39.71
17260;BME280;8746;49.230;9.220;2023-04-09T12:31:28;100622.28;;;14.98;40.05
17260;BME280;8746;49.230;9.220;2023-04-09T12:33:53;100620.97;;;14.87;39.91
17260;BME280;8746;49.230;9.220;2023-04-09T12:36:18;100632.09;;;14.96;38.82
17260;BME280;8746;49.230;9.220;2023-04-09T12:38:44;100615.97;;;15.18;40.58
17260;BME280;8746;49.230;9.220;2023-04-09T12:41:09;100608.59;;;15.60;40.22
17260;BME280;8746;49.230;9.220;2023-04-09T12:43:35;100611.56;;;14.99;38.64
17260;BME280;8746;49.230;9.220;2023-04-09T12:46:00;100610.22;;;14.71;38.70
17260;BME280;8746;49.230;9.220;2023-04-09T12:48:26;100608.41;;;15.10;39.71
17260;BME280;8746;49.230;9.220;2023-04-09T12:50:52;100613.28;;;14.81;38.15
17260;BME280;8746;49.230;9.220;2023-04-09T12:53:17;100604.75;;;14.94;38.62
17260;BME280;8746;49.230;9.220;2023-04-09T12:55:43;100602.19;;;15.46;39.86
17260;BME280;8746;49.230;9.220;2023-04-09T12:58:08;100596.03;;;15.81;38.22
17260;BME280;8746;49.230;9.220;2023-04-09T13:00:33;100582.63;;;15.30;38.04
17260;BME280;8746;49.230;9.220;2023-04-09T13:02:59;100591.13;;;15.19;40.02
17260;BME280;8746;49.230;9.220;2023-04-09T13:05:24;100592.41;;;14.73;39.49
17260;BME280;8746;49.230;9.220;2023-04-09T13:07:50;100583.63;;;14.33;38.89
17260;BME280;8746;49.230;9.220;2023-04-09T13:10:15;100582.09;;;14.27;39.68
17260;BME280;8746;49.230;9.220;2023-04-09T13:12:40;100590.13;;;14.26;38.80
17260;BME280;8746;49.230;9.220;2023-04-09T13:15:06;100580.13;;;14.33;39.45
17260;BME280;8746;49.230;9.220;2023-04-09T13:17:31;100582.72;;;14.53;39.45